createdAt,value
2018-06-08T00:01:04.091Z,17.1
2018-06-08T00:02:46.695Z,17
2018-06-08T00:04:06.545Z,17
2018-06-08T00:05:31.419Z,17.1
2018-06-08T00:06:53.807Z,17.1
2018-06-08T00:08:13.662Z,17.1
2018-06-08T00:09:36.060Z,17.1
2018-06-08T00:10:55.887Z,17.2
2018-06-08T00:12:18.313Z,17
2018-06-08T00:13:38.200Z,17.1
2018-06-08T00:15:03.115Z,17
2018-06-08T00:16:25.508Z,17.1
2018-06-08T00:17:47.884Z,17.1
2018-06-08T00:19:07.749Z,17.6
2018-06-08T00:20:27.628Z,17.6
2018-06-08T00:21:49.976Z,17.5
2018-06-08T00:23:22.448Z,17.5
2018-06-08T00:24:42.338Z,17.5
2018-06-08T00:26:02.164Z,17.5
2018-06-08T00:27:29.585Z,17.5
2018-06-08T00:28:54.504Z,17.5
2018-06-08T00:30:14.323Z,17.5
2018-06-08T00:31:34.187Z,17.5
2018-06-08T00:32:54.026Z,17.5
2018-06-08T00:34:21.448Z,17.4
2018-06-08T00:35:41.272Z,17.4
2018-06-08T00:37:01.094Z,17.4
2018-06-08T00:38:23.535Z,17.4
2018-06-08T00:39:50.952Z,17.4
2018-06-08T00:41:10.779Z,17.4
2018-06-08T00:42:30.611Z,17.4
2018-06-08T00:43:50.434Z,17.4
2018-06-08T00:45:15.369Z,17.3
2018-06-08T00:46:35.188Z,17.4
2018-06-08T00:47:55.076Z,17.4
2018-06-08T00:49:17.430Z,16.9
2018-06-08T00:50:39.778Z,16.6
2018-06-08T00:52:04.665Z,16.8
2018-06-08T00:53:24.523Z,16.9
2018-06-08T00:54:44.343Z,16.6
2018-06-08T00:56:09.253Z,16.4
2018-06-08T00:57:29.137Z,16.7
2018-06-08T00:58:51.543Z,16.5
2018-06-08T01:00:11.422Z,16.5
2018-06-08T01:01:31.268Z,16.5
2018-06-08T01:03:03.782Z,16.5
2018-06-08T01:04:26.131Z,16.5
2018-06-08T01:05:45.969Z,16.5
2018-06-08T01:07:08.366Z,16.5
2018-06-08T01:08:35.784Z,16.5
2018-06-08T01:09:55.662Z,16.4
2018-06-08T01:11:15.498Z,16.4
2018-06-08T01:12:40.387Z,16.4
2018-06-08T01:14:00.221Z,16.4
2018-06-08T01:15:20.053Z,16.4
2018-06-08T01:16:42.409Z,16.4
2018-06-08T01:18:02.229Z,16.4
2018-06-08T01:19:22.101Z,16.4
2018-06-08T01:20:41.927Z,16.4
2018-06-08T01:22:09.380Z,16.6
2018-06-08T01:23:29.196Z,16.4
2018-06-08T01:24:51.556Z,16.3
2018-06-08T01:26:13.959Z,16.3
2018-06-08T01:27:41.382Z,16.4
2018-06-08T01:29:03.744Z,16.7
2018-06-08T01:30:23.593Z,16.7
2018-06-08T01:31:48.577Z,16.7
2018-06-08T01:33:08.452Z,16.7
2018-06-08T01:34:28.303Z,16.7
2018-06-08T01:35:48.152Z,16.7
2018-06-08T01:37:08.053Z,16.7
2018-06-08T01:38:27.943Z,16.7
2018-06-08T01:39:50.305Z,16.7
2018-06-08T01:41:10.188Z,16.7
2018-06-08T01:42:30.014Z,16.7
2018-06-08T01:43:54.898Z,16.7
2018-06-08T01:45:14.769Z,16.7
2018-06-08T01:46:34.596Z,16.7
2018-06-08T01:48:04.535Z,16.7
2018-06-08T01:49:26.897Z,16.7
2018-06-08T01:50:46.720Z,16.7
2018-06-08T01:52:21.758Z,16.7
2018-06-08T01:53:49.173Z,16.7
2018-06-08T01:55:11.538Z,16.6
2018-06-08T01:56:36.415Z,16.6
2018-06-08T01:57:56.282Z,16.6
2018-06-08T01:59:18.673Z,16.6
2018-06-08T02:00:41.021Z,17.1
2018-06-08T02:02:00.858Z,17.2
2018-06-08T02:03:20.697Z,17.1
2018-06-08T02:04:43.093Z,16.6
2018-06-08T02:06:02.983Z,16.5
2018-06-08T02:07:30.395Z,15.9
2018-06-08T02:08:52.822Z,16
2018-06-08T02:10:17.753Z,15.8
2018-06-08T02:11:40.110Z,16.4
2018-06-08T02:13:04.984Z,16.4
2018-06-08T02:14:24.800Z,16.4
2018-06-08T02:15:59.837Z,16.2
2018-06-08T02:17:24.723Z,16.5
2018-06-08T02:18:49.636Z,16.4
2018-06-08T02:20:22.167Z,16.5
2018-06-08T02:21:41.991Z,16.5
2018-06-08T02:23:06.867Z,16.5
2018-06-08T02:24:31.776Z,16.3
2018-06-08T02:25:54.152Z,16.2
2018-06-08T02:27:24.153Z,16.4
2018-06-08T02:28:51.555Z,16.1
2018-06-08T02:30:11.433Z,16.4
2018-06-08T02:31:33.820Z,16.4
2018-06-08T02:32:56.176Z,16.2
2018-06-08T02:34:18.529Z,16
2018-06-08T02:35:38.383Z,16
2018-06-08T02:37:15.918Z,16.1
2018-06-08T02:38:35.743Z,16
2018-06-08T02:39:55.564Z,16.1
2018-06-08T02:41:23.070Z,16
2018-06-08T02:42:45.429Z,16.2
2018-06-08T02:44:10.358Z,16.2
2018-06-08T02:45:32.748Z,16.2
2018-06-08T02:46:52.643Z,16.3
2018-06-08T02:48:17.553Z,16.3
2018-06-08T02:49:39.975Z,16.3
2018-06-08T02:51:02.342Z,16.3
2018-06-08T02:52:22.227Z,16.2
2018-06-08T02:53:42.109Z,16.1
2018-06-08T02:55:01.952Z,16.1
2018-06-08T02:56:26.838Z,16.1
2018-06-08T02:57:46.706Z,16
2018-06-08T02:59:14.147Z,16
2018-06-08T03:00:36.542Z,16
2018-06-08T03:02:11.615Z,16
2018-06-08T03:03:39.034Z,15.7
2018-06-08T03:04:58.869Z,15.7
2018-06-08T03:06:21.271Z,15.7
2018-06-08T03:07:43.634Z,15.7
2018-06-08T03:09:03.452Z,15.7
2018-06-08T03:10:38.525Z,15.7
2018-06-08T03:11:58.370Z,15.7
2018-06-08T03:13:20.738Z,15.7
2018-06-08T03:14:43.172Z,15.8
2018-06-08T03:16:03.018Z,15.9
2018-06-08T03:17:22.883Z,15.8
2018-06-08T03:18:42.735Z,15.7
2018-06-08T03:20:05.099Z,15.7
2018-06-08T03:21:30.034Z,15.8
2018-06-08T03:22:49.880Z,15.6
2018-06-08T03:24:12.265Z,15.7
2018-06-08T03:25:54.895Z,15.7
2018-06-08T03:27:14.724Z,15.7
2018-06-08T03:28:34.553Z,15.7
2018-06-08T03:29:54.410Z,15.7
2018-06-08T03:31:19.356Z,16.5
2018-06-08T03:32:39.205Z,15.7
2018-06-08T03:33:59.028Z,16.2
2018-06-08T03:35:18.895Z,15.7
2018-06-08T03:36:51.405Z,15.8
2018-06-08T03:38:11.254Z,15.7
2018-06-08T03:39:31.076Z,15.6
2018-06-08T03:40:53.442Z,15.7
2018-06-08T03:42:15.800Z,15.7
2018-06-08T03:43:35.628Z,15.7
2018-06-08T03:44:55.507Z,15.8
2018-06-08T03:46:20.408Z,15.9
2018-06-08T03:47:40.262Z,15.8
2018-06-08T03:49:00.102Z,15.8
2018-06-08T03:50:22.509Z,15.8
2018-06-08T03:51:47.427Z,15.8
2018-06-08T03:53:07.282Z,15.8
2018-06-08T03:54:29.633Z,15.9
2018-06-08T03:55:49.513Z,15.9
2018-06-08T03:57:09.340Z,15.8
2018-06-08T03:58:29.183Z,15.9
2018-06-08T03:59:49.044Z,15.8
2018-06-08T04:01:13.918Z,15.9
2018-06-08T04:02:36.289Z,15.7
2018-06-08T04:04:06.283Z,15.8
2018-06-08T04:05:26.121Z,15.9
2018-06-08T04:06:51.012Z,15.9
2018-06-08T04:08:15.952Z,16
2018-06-08T04:09:35.782Z,15.9
2018-06-08T04:11:00.687Z,15.9
2018-06-08T04:12:20.519Z,15.9
2018-06-08T04:13:40.352Z,15.8
2018-06-08T04:15:02.786Z,15.9
2018-06-08T04:16:22.696Z,15.9
2018-06-08T04:17:45.081Z,15.9
2018-06-08T04:19:04.907Z,15.8
2018-06-08T04:20:24.789Z,15.9
2018-06-08T04:21:47.171Z,15.9
2018-06-08T04:23:09.525Z,15.9
2018-06-08T04:24:34.402Z,15.9
2018-06-08T04:25:56.766Z,16
2018-06-08T04:27:16.639Z,16
2018-06-08T04:28:36.467Z,16
2018-06-08T04:29:58.879Z,16
2018-06-08T04:31:21.235Z,16.5
2018-06-08T04:32:41.100Z,16.2
2018-06-08T04:34:03.530Z,16.7
2018-06-08T04:35:23.356Z,16.7
2018-06-08T04:36:43.211Z,16.7
2018-06-08T04:38:03.048Z,16.9
2018-06-08T04:39:25.410Z,16.7
2018-06-08T04:40:45.264Z,16.8
2018-06-08T04:42:12.731Z,16.7
2018-06-08T04:43:37.706Z,16.9
2018-06-08T04:44:57.566Z,16.9
2018-06-08T04:46:19.955Z,16.9
2018-06-08T04:47:39.777Z,16.9
2018-06-08T04:48:59.606Z,16.8
2018-06-08T04:50:21.999Z,16.8
2018-06-08T04:51:46.912Z,16.9
2018-06-08T04:53:09.263Z,16.8
2018-06-08T04:54:29.106Z,16.8
2018-06-08T04:55:48.958Z,16.8
2018-06-08T04:57:13.894Z,16.8
2018-06-08T04:58:33.747Z,16.8
2018-06-08T04:59:56.107Z,16.9
2018-06-08T05:01:15.932Z,16.9
2018-06-08T05:02:35.836Z,16.8
2018-06-08T05:04:05.780Z,17
2018-06-08T05:05:30.658Z,17
2018-06-08T05:06:50.536Z,17.1
2018-06-08T05:08:10.421Z,17.2
2018-06-08T05:09:30.247Z,17.2
2018-06-08T05:10:52.667Z,17.2
2018-06-08T05:12:15.027Z,17.3
2018-06-08T05:13:37.408Z,17.2
2018-06-08T05:15:04.854Z,17.1
2018-06-08T05:16:24.683Z,17.1
2018-06-08T05:17:49.560Z,17.1
2018-06-08T05:19:11.945Z,17.1
2018-06-08T05:20:31.800Z,17
2018-06-08T05:21:51.640Z,17.1
2018-06-08T05:23:11.503Z,16.8
2018-06-08T05:24:33.914Z,16.9
2018-06-08T05:25:56.282Z,16.9
2018-06-08T05:27:18.653Z,16.9
2018-06-08T05:28:41.061Z,16.9
2018-06-08T05:30:05.955Z,16.9
2018-06-08T05:31:25.825Z,17.1
2018-06-08T05:32:48.189Z,17.1
2018-06-08T05:34:10.544Z,17.1
2018-06-08T05:35:32.935Z,17.1
2018-06-08T05:36:55.297Z,17.4
2018-06-08T05:38:15.141Z,17.4
2018-06-08T05:39:40.060Z,16.5
2018-06-08T05:41:02.445Z,17.4
2018-06-08T05:42:22.292Z,17.1
2018-06-08T05:43:47.207Z,17.2
2018-06-08T05:45:09.561Z,17.2
2018-06-08T05:46:34.452Z,17.3
2018-06-08T05:47:54.272Z,17.3
2018-06-08T05:49:24.261Z,17.3
2018-06-08T05:50:44.091Z,17.3
2018-06-08T05:52:19.106Z,17.3
2018-06-08T05:53:38.995Z,17.4
2018-06-08T05:54:58.834Z,17.6
2018-06-08T05:56:21.181Z,17.6
2018-06-08T05:57:41.015Z,17.6
2018-06-08T05:59:08.438Z,17.6
2018-06-08T06:00:28.272Z,17.6
2018-06-08T06:01:53.192Z,17.6
2018-06-08T06:03:25.714Z,17.5
2018-06-08T06:04:53.145Z,17.5
2018-06-08T06:06:13.024Z,18.2
2018-06-08T06:07:40.452Z,18.1
2018-06-08T06:09:00.308Z,18.1
2018-06-08T06:10:20.139Z,17.7
2018-06-08T06:11:40.011Z,17.4
2018-06-08T06:12:59.877Z,18.3
2018-06-08T06:14:19.706Z,18.1
2018-06-08T06:15:42.088Z,18.4
2018-06-08T06:17:01.980Z,18.4
2018-06-08T06:18:21.839Z,18.5
2018-06-08T06:19:49.302Z,18
2018-06-08T06:21:09.123Z,18.2
2018-06-08T06:22:36.569Z,18.4
2018-06-08T06:24:01.473Z,18
2018-06-08T06:25:21.296Z,17.9
2018-06-08T06:26:41.178Z,17.6
2018-06-08T06:28:03.554Z,17.8
2018-06-08T06:29:28.447Z,17.7
2018-06-08T06:30:48.278Z,17.9
2018-06-08T06:32:13.203Z,17.9
2018-06-08T06:33:35.558Z,17.7
2018-06-08T06:34:57.917Z,17.6
2018-06-08T06:36:17.750Z,17.6
2018-06-08T06:37:37.593Z,18
2018-06-08T06:38:57.461Z,19.1
2018-06-08T06:40:22.404Z,19
2018-06-08T06:41:49.863Z,19.1
2018-06-08T06:43:14.752Z,19
2018-06-08T06:44:37.142Z,19
2018-06-08T06:45:59.500Z,19
2018-06-08T06:47:24.433Z,19.1
2018-06-08T06:48:44.299Z,19.1
2018-06-08T06:50:04.168Z,19.1
2018-06-08T06:51:29.074Z,19.1
2018-06-08T06:53:09.180Z,19.1
2018-06-08T06:54:29.121Z,19.1
2018-06-08T06:55:56.562Z,18.6
2018-06-08T06:57:16.403Z,18.6
2018-06-08T06:58:36.224Z,18.6
2018-06-08T06:59:56.115Z,18.8
2018-06-08T07:01:18.469Z,18.8
2018-06-08T07:02:40.826Z,19
2018-06-08T07:04:03.219Z,18.9
2018-06-08T07:05:28.147Z,18.8
2018-06-08T07:06:50.550Z,19
2018-06-08T07:08:17.973Z,19.1
2018-06-08T07:09:42.872Z,18.8
2018-06-08T07:11:02.712Z,18.9
2018-06-08T07:12:22.536Z,18.9
2018-06-08T07:13:42.404Z,18.8
2018-06-08T07:15:04.753Z,18.9
2018-06-08T07:16:24.577Z,18.9
2018-06-08T07:17:44.406Z,18.9
2018-06-08T07:19:06.797Z,18.8
2018-06-08T07:20:26.652Z,18.8
2018-06-08T07:21:49.028Z,18.9
2018-06-08T07:23:08.865Z,18.9
2018-06-08T07:24:31.233Z,19.1
2018-06-08T07:25:53.639Z,19.1
2018-06-08T07:27:16.043Z,19.2
2018-06-08T07:28:35.924Z,19.2
2018-06-08T07:29:55.752Z,19.2
2018-06-08T07:31:15.594Z,19.3
2018-06-08T07:32:37.945Z,19.3
2018-06-08T07:33:57.790Z,19.4
2018-06-08T07:35:25.212Z,19.3
2018-06-08T07:36:47.584Z,19.4
2018-06-08T07:38:07.408Z,19.4
2018-06-08T07:39:27.236Z,19.4
2018-06-08T07:40:47.083Z,19.4
2018-06-08T07:42:06.941Z,19.6
2018-06-08T07:43:39.408Z,19.6
2018-06-08T07:45:01.786Z,19.7
2018-06-08T07:46:36.810Z,19.7
2018-06-08T07:48:01.721Z,18.6
2018-06-08T07:49:24.117Z,18.9
2018-06-08T07:50:46.515Z,19
2018-06-08T07:52:06.374Z,19.1
2018-06-08T07:53:26.249Z,19
2018-06-08T07:54:53.699Z,19.2
2018-06-08T07:56:26.201Z,19.3
2018-06-08T07:57:46.042Z,19.4
2018-06-08T07:59:05.883Z,19.4
2018-06-08T08:00:25.701Z,19.4
2018-06-08T08:01:48.050Z,19.4
2018-06-08T08:03:15.482Z,19.3
2018-06-08T08:04:37.894Z,19.4
2018-06-08T08:05:57.763Z,19.6
2018-06-08T08:07:25.176Z,19.6
2018-06-08T08:08:45.054Z,19.7
2018-06-08T08:10:04.921Z,19.8
2018-06-08T08:11:27.282Z,19.8
2018-06-08T08:12:47.156Z,19.8
2018-06-08T08:14:09.511Z,19.7
2018-06-08T08:15:39.516Z,19.9
2018-06-08T08:17:04.452Z,19.9
2018-06-08T08:18:26.825Z,19.9
2018-06-08T08:19:51.796Z,20
2018-06-08T08:21:14.147Z,20
2018-06-08T08:22:33.983Z,20.1
2018-06-08T08:23:56.389Z,20.1
2018-06-08T08:25:18.796Z,20.1
2018-06-08T08:26:43.731Z,20.1
2018-06-08T08:28:03.562Z,20.1
2018-06-08T08:29:23.392Z,20.2
2018-06-08T08:30:45.750Z,20.1
2018-06-08T08:32:05.572Z,20.2
2018-06-08T08:33:25.403Z,20.2
2018-06-08T08:34:45.229Z,20.1
2018-06-08T08:36:07.587Z,21.1
2018-06-08T08:37:29.943Z,21.1
2018-06-08T08:38:52.302Z,21.1
2018-06-08T08:40:19.749Z,21.2
2018-06-08T08:41:39.580Z,21.2
2018-06-08T08:42:59.417Z,21.3
2018-06-08T08:44:19.248Z,21.3
2018-06-08T08:45:39.076Z,21.3
2018-06-08T08:46:58.906Z,21.3
2018-06-08T08:48:18.759Z,21.3
2018-06-08T08:49:38.588Z,21.3
2018-06-08T08:51:03.473Z,21.3
2018-06-08T08:52:28.371Z,21.3
2018-06-08T08:53:48.205Z,21.3
2018-06-08T08:55:08.041Z,21.3
2018-06-08T08:56:30.395Z,21.4
2018-06-08T08:57:50.219Z,21.4
2018-06-08T08:59:17.680Z,21.4
2018-06-08T09:00:45.143Z,21.4
2018-06-08T09:02:07.493Z,21.4
2018-06-08T09:03:34.913Z,21.4
2018-06-08T09:04:54.812Z,21.4
2018-06-08T09:06:19.697Z,21.4
2018-06-08T09:07:42.063Z,21.4
2018-06-08T09:09:01.888Z,21.4
2018-06-08T09:10:21.744Z,21.4
2018-06-08T09:11:46.653Z,21.3
2018-06-08T09:13:06.526Z,21.4
2018-06-08T09:14:26.382Z,21.4
2018-06-08T09:15:51.288Z,21.4
2018-06-08T09:17:13.670Z,21.4
2018-06-08T09:18:36.058Z,21.4
2018-06-08T09:19:58.479Z,21.5
2018-06-08T09:21:41.101Z,21.5
2018-06-08T09:23:01.004Z,21.5
2018-06-08T09:24:25.922Z,21.1
2018-06-08T09:25:45.824Z,20.1
2018-06-08T09:27:43.079Z,20.6
2018-06-08T09:29:02.912Z,20.9
2018-06-08T09:30:22.737Z,20.8
2018-06-08T09:31:47.645Z,21.7
2018-06-08T09:33:15.141Z,21.8
2018-06-08T09:34:34.966Z,21.8
2018-06-08T09:35:59.899Z,21.8
2018-06-08T09:37:19.747Z,21.8
2018-06-08T09:38:42.114Z,21.8
2018-06-08T09:40:02.054Z,21.8
2018-06-08T09:41:29.533Z,21.8
2018-06-08T09:42:49.396Z,21.8
2018-06-08T09:44:09.267Z,21.8
2018-06-08T09:45:34.203Z,21.8
2018-06-08T09:46:59.119Z,21.8
2018-06-08T09:48:34.160Z,21.8
2018-06-08T09:49:54.050Z,21.8
2018-06-08T09:51:13.883Z,21.9
2018-06-08T09:52:33.704Z,21.9
2018-06-08T09:53:53.520Z,21.9
2018-06-08T09:55:13.390Z,21.9
2018-06-08T09:56:33.209Z,21.9
2018-06-08T09:57:55.576Z,21.9
2018-06-08T09:59:20.530Z,21.9
2018-06-08T10:00:40.386Z,21.9
2018-06-08T10:02:00.260Z,21.8
2018-06-08T10:03:25.183Z,20.9
2018-06-08T10:04:47.543Z,21.5
2018-06-08T10:06:07.402Z,22.1
2018-06-08T10:07:34.859Z,22.1
2018-06-08T10:08:54.696Z,22.1
2018-06-08T10:10:14.526Z,22.1
2018-06-08T10:11:34.388Z,22.1
2018-06-08T10:12:56.784Z,22.1
2018-06-08T10:14:16.609Z,22.1
2018-06-08T10:15:36.504Z,22.1
2018-06-08T10:17:03.912Z,22.1
2018-06-08T10:18:23.732Z,22.1
2018-06-08T10:19:43.556Z,22.1
2018-06-08T10:21:03.417Z,22.1
2018-06-08T10:22:33.400Z,22.1
2018-06-08T10:23:53.236Z,22
2018-06-08T10:25:13.057Z,21.9
2018-06-08T10:26:37.937Z,21.9
2018-06-08T10:28:00.346Z,21.9
2018-06-08T10:29:20.224Z,22
2018-06-08T10:30:45.106Z,22.2
2018-06-08T10:32:04.928Z,22.2
2018-06-08T10:33:24.755Z,20.9
2018-06-08T10:34:47.162Z,21.8
2018-06-08T10:36:12.053Z,21.7
2018-06-08T10:37:31.875Z,21.7
2018-06-08T10:39:04.360Z,21.6
2018-06-08T10:40:29.270Z,21.6
2018-06-08T10:41:49.157Z,21.6
2018-06-08T10:43:19.157Z,21.6
2018-06-08T10:44:38.983Z,21.7
2018-06-08T10:45:58.818Z,21.7
2018-06-08T10:47:18.663Z,21.7
2018-06-08T10:48:41.049Z,21.9
2018-06-08T10:50:03.405Z,21.9
2018-06-08T10:51:23.233Z,21.9
2018-06-08T10:52:45.610Z,21.9
2018-06-08T10:54:07.969Z,21.9
2018-06-08T10:55:32.857Z,21.9
2018-06-08T10:56:57.751Z,21.9
2018-06-08T10:58:20.109Z,22
2018-06-08T10:59:39.931Z,22
2018-06-08T11:01:04.811Z,22
2018-06-08T11:02:27.213Z,22
2018-06-08T11:03:49.584Z,22
2018-06-08T11:05:14.530Z,22.1
2018-06-08T11:06:34.347Z,22.1
2018-06-08T11:07:56.719Z,22.1
2018-06-08T11:09:16.550Z,22.1
2018-06-08T11:10:41.434Z,22.1
2018-06-08T11:12:01.292Z,21.9
2018-06-08T11:13:28.699Z,21.9
2018-06-08T11:14:48.698Z,21.9
2018-06-08T11:16:11.085Z,22.2
2018-06-08T11:17:30.940Z,22.2
2018-06-08T11:18:58.341Z,22.2
2018-06-08T11:20:18.217Z,22.2
2018-06-08T11:21:40.701Z,22.2
2018-06-08T11:23:00.563Z,22.2
2018-06-08T11:24:25.501Z,22.3
2018-06-08T11:25:45.345Z,22.3
2018-06-08T11:27:05.168Z,22.3
2018-06-08T11:28:27.595Z,22.3
2018-06-08T11:29:57.565Z,22.2
2018-06-08T11:31:19.927Z,22.3
2018-06-08T11:33:00.000Z,22.3
2018-06-08T11:34:19.857Z,22.4
2018-06-08T11:35:47.275Z,22.4
2018-06-08T11:37:07.112Z,22.4
2018-06-08T11:38:29.462Z,22.5
2018-06-08T11:39:51.814Z,22.5
2018-06-08T11:41:11.651Z,22.5
2018-06-08T11:42:31.476Z,22.6
2018-06-08T11:43:53.891Z,22.6
2018-06-08T11:45:18.779Z,22.7
2018-06-08T11:46:38.651Z,22.7
2018-06-08T11:48:01.037Z,22.7
2018-06-08T11:49:20.913Z,22.7
2018-06-08T11:50:40.765Z,22.6
2018-06-08T11:52:00.613Z,22.6
2018-06-08T11:53:20.510Z,22.7
2018-06-08T11:54:40.431Z,22.8
2018-06-08T11:56:00.340Z,22.8
2018-06-08T11:57:20.250Z,22.9
2018-06-08T11:58:42.653Z,22.9
2018-06-08T12:00:07.567Z,22.9
2018-06-08T12:01:27.409Z,23
2018-06-08T12:02:52.290Z,23
2018-06-08T12:04:12.122Z,23
2018-06-08T12:05:31.973Z,23.2
2018-06-08T12:06:51.823Z,23.3
2018-06-08T12:08:11.656Z,23.2
2018-06-08T12:09:44.154Z,23.2
2018-06-08T12:11:04.032Z,23.4
2018-06-08T12:12:23.852Z,23.4
2018-06-08T12:13:46.209Z,23.4
2018-06-08T12:15:06.088Z,23.6
2018-06-08T12:16:25.995Z,23.7
2018-06-08T12:17:48.366Z,23.8
2018-06-08T12:19:08.203Z,23.8
2018-06-08T12:20:28.077Z,23.8
2018-06-08T12:21:50.454Z,24
2018-06-08T12:23:12.807Z,24.1
2018-06-08T12:24:32.685Z,24.1
2018-06-08T12:25:52.509Z,24.2
2018-06-08T12:27:14.896Z,24.1
2018-06-08T12:28:34.782Z,23.8
2018-06-08T12:29:59.667Z,23.8
2018-06-08T12:31:24.564Z,23.8
2018-06-08T12:32:44.389Z,23.9
2018-06-08T12:34:04.348Z,23.9
2018-06-08T12:35:29.233Z,24
2018-06-08T12:36:51.652Z,24.1
2018-06-08T12:38:14.089Z,24.1
2018-06-08T12:39:33.952Z,24.3
2018-06-08T12:40:53.776Z,24.4
2018-06-08T12:42:13.635Z,24.4
2018-06-08T12:43:33.546Z,24.6
2018-06-08T12:44:55.934Z,24.6
2018-06-08T12:46:20.891Z,24.6
2018-06-08T12:47:45.828Z,24.6
2018-06-08T12:49:10.735Z,24.7
2018-06-08T12:50:33.093Z,24.8
2018-06-08T12:52:08.093Z,24.9
2018-06-08T12:53:27.932Z,25.1
2018-06-08T12:54:47.780Z,25.1
2018-06-08T12:56:17.738Z,25
2018-06-08T12:57:50.298Z,25
2018-06-08T12:59:15.207Z,25.1
2018-06-08T13:00:40.131Z,25.2
2018-06-08T13:02:00.028Z,25.2
2018-06-08T13:03:19.866Z,25.2
2018-06-08T13:04:44.791Z,25.2
2018-06-08T13:06:04.687Z,25.2
2018-06-08T13:07:34.687Z,25.3
2018-06-08T13:08:59.630Z,25.5
2018-06-08T13:10:19.452Z,25.5
2018-06-08T13:11:44.338Z,25.3
2018-06-08T13:13:04.190Z,25.4
2018-06-08T13:14:26.545Z,25.6
2018-06-08T13:15:46.497Z,25.5
2018-06-08T13:17:08.863Z,25.5
2018-06-08T13:18:31.215Z,25.5
2018-06-08T13:19:51.040Z,25.3
2018-06-08T13:21:13.442Z,25.3
2018-06-08T13:22:45.967Z,25.3
2018-06-08T13:24:05.823Z,25.7
2018-06-08T13:25:25.675Z,25.8
2018-06-08T13:26:45.514Z,25.7
2018-06-08T13:28:05.426Z,25.8
2018-06-08T13:29:25.479Z,25.6
2018-06-08T13:30:50.453Z,25.5
2018-06-08T13:32:12.801Z,25.7
2018-06-08T13:33:32.670Z,25.7
2018-06-08T13:34:52.507Z,25.7
2018-06-08T13:36:14.915Z,25.7
2018-06-08T13:37:37.273Z,25.8
2018-06-08T13:38:59.629Z,25.8
2018-06-08T13:40:19.504Z,25.8
2018-06-08T13:41:39.332Z,25.7
2018-06-08T13:43:01.695Z,25.8
2018-06-08T13:44:21.526Z,25.9
2018-06-08T13:45:41.426Z,26
2018-06-08T13:47:03.789Z,26.3
2018-06-08T13:48:31.206Z,26.2
2018-06-08T13:49:53.586Z,26
2018-06-08T13:51:13.407Z,26.1
2018-06-08T13:52:40.885Z,26
2018-06-08T13:54:00.717Z,25.8
2018-06-08T13:55:23.068Z,26
2018-06-08T13:56:55.571Z,26.1
2018-06-08T13:58:17.988Z,26.1
2018-06-08T13:59:40.386Z,26.2
2018-06-08T14:01:00.277Z,26.2
2018-06-08T14:02:22.632Z,26.1
2018-06-08T14:03:45.012Z,26.3
2018-06-08T14:05:04.870Z,26.3
2018-06-08T14:06:24.767Z,26.5
2018-06-08T14:07:47.118Z,26.6
2018-06-08T14:09:14.539Z,26.4
2018-06-08T14:10:34.436Z,26.5
2018-06-08T14:11:54.397Z,26.6
2018-06-08T14:13:14.293Z,26.6
2018-06-08T14:14:39.181Z,26.5
2018-06-08T14:16:06.648Z,26.5
2018-06-08T14:17:26.468Z,26.5
2018-06-08T14:18:51.349Z,26.7
2018-06-08T14:20:11.176Z,26.6
2018-06-08T14:21:31.053Z,26.6
2018-06-08T14:23:03.554Z,26.5
2018-06-08T14:24:28.464Z,26.6
2018-06-08T14:25:50.820Z,26.7
2018-06-08T14:27:13.203Z,26.6
2018-06-08T14:28:33.031Z,26.5
2018-06-08T14:29:57.913Z,26.4
2018-06-08T14:31:17.737Z,26.5
2018-06-08T14:32:42.652Z,26.5
2018-06-08T14:34:02.476Z,26.6
2018-06-08T14:35:22.343Z,26.7
2018-06-08T14:36:54.847Z,26.7
2018-06-08T14:38:19.879Z,26.5
2018-06-08T14:39:39.745Z,26.5
2018-06-08T14:40:59.596Z,26.4
2018-06-08T14:42:19.430Z,26.3
2018-06-08T14:43:46.931Z,26.3
2018-06-08T14:45:06.759Z,26.4
2018-06-08T14:46:29.158Z,26.4
2018-06-08T14:47:48.991Z,26.5
2018-06-08T14:49:11.373Z,26.6
2018-06-08T14:50:31.221Z,26.6
2018-06-08T14:51:56.104Z,26.5
2018-06-08T14:53:15.969Z,26.5
2018-06-08T14:54:53.507Z,26.4
2018-06-08T14:56:15.877Z,26.3
2018-06-08T14:57:48.342Z,26.2
2018-06-08T14:59:08.182Z,26.2
2018-06-08T15:00:28.018Z,26.2
2018-06-08T15:01:50.408Z,26.2
2018-06-08T15:03:12.759Z,26.2
2018-06-08T15:04:35.145Z,26.1
2018-06-08T15:06:15.296Z,26
2018-06-08T15:07:35.145Z,25.8
2018-06-08T15:08:55.052Z,25.8
2018-06-08T15:10:14.957Z,25.9
2018-06-08T15:11:37.311Z,25.8
2018-06-08T15:13:09.865Z,25.9
2018-06-08T15:14:29.754Z,25.8
2018-06-08T15:15:54.681Z,25.8
2018-06-08T15:17:14.533Z,25.8
2018-06-08T15:18:36.905Z,25.9
2018-06-08T15:20:06.868Z,25.8
2018-06-08T15:21:34.296Z,25.7
2018-06-08T15:22:56.706Z,25.6
2018-06-08T15:24:19.087Z,25.5
2018-06-08T15:25:38.909Z,25.6
2018-06-08T15:26:58.726Z,25.7
2018-06-08T15:28:23.664Z,25.6
2018-06-08T15:29:46.069Z,25.5
2018-06-08T15:31:13.567Z,25.4
2018-06-08T15:32:33.404Z,25.5
2018-06-08T15:34:03.346Z,25.4
2018-06-08T15:35:25.704Z,25.3
2018-06-08T15:36:45.528Z,25.3
2018-06-08T15:38:23.098Z,25.2
2018-06-08T15:39:47.994Z,25.1
2018-06-08T15:41:07.814Z,25.1
2018-06-08T15:42:27.672Z,25.2
2018-06-08T15:43:50.107Z,25.1
2018-06-08T15:45:12.466Z,25
2018-06-08T15:46:39.954Z,25
2018-06-08T15:47:59.805Z,25
2018-06-08T15:49:27.222Z,24.9
2018-06-08T15:50:47.044Z,24.9
2018-06-08T15:52:09.437Z,24.9
2018-06-08T15:53:34.399Z,24.8
2018-06-08T15:54:56.750Z,24.8
2018-06-08T15:56:16.619Z,24.8
2018-06-08T15:57:36.448Z,24.7
2018-06-08T15:58:58.801Z,24.8
2018-06-08T16:00:21.148Z,24.8
2018-06-08T16:01:40.985Z,24.7
2018-06-08T16:03:05.919Z,24.7
2018-06-08T16:04:28.305Z,24.7
2018-06-08T16:05:48.123Z,24.7
2018-06-08T16:07:13.019Z,24.6
2018-06-08T16:08:32.877Z,24.7
2018-06-08T16:10:10.440Z,24.6
2018-06-08T16:11:30.305Z,24.7
2018-06-08T16:13:15.434Z,24.7
2018-06-08T16:14:37.789Z,24.6
2018-06-08T16:16:00.179Z,24.6
2018-06-08T16:17:22.566Z,24.5
2018-06-08T16:18:44.944Z,24.4
2018-06-08T16:20:07.324Z,24.3
2018-06-08T16:21:27.150Z,24.3
2018-06-08T16:22:49.533Z,24.3
2018-06-08T16:24:09.418Z,24.2
2018-06-08T16:25:29.266Z,24.3
2018-06-08T16:26:56.682Z,24.3
2018-06-08T16:28:16.517Z,24.3
2018-06-08T16:29:36.382Z,24.3
2018-06-08T16:30:58.797Z,24.2
2018-06-08T16:32:21.202Z,24.2
2018-06-08T16:33:43.571Z,24.2
2018-06-08T16:35:03.395Z,24.2
2018-06-08T16:36:28.272Z,24.2
2018-06-08T16:37:50.654Z,24.2
2018-06-08T16:39:15.549Z,24.2
2018-06-08T16:40:37.948Z,24.1
2018-06-08T16:42:00.334Z,24.2
2018-06-08T16:43:22.697Z,24.3
2018-06-08T16:44:42.550Z,24.1
2018-06-08T16:46:07.435Z,24.1
2018-06-08T16:47:27.257Z,24.1
2018-06-08T16:48:54.784Z,24.1
2018-06-08T16:50:19.712Z,24.1
2018-06-08T16:51:44.676Z,24.2
2018-06-08T16:53:04.529Z,24.1
2018-06-08T16:54:24.433Z,24.1
2018-06-08T16:55:44.282Z,24.1
2018-06-08T16:57:09.261Z,24.1
2018-06-08T16:58:36.732Z,24.1
2018-06-08T16:59:56.613Z,24
2018-06-08T17:01:16.453Z,24
2018-06-08T17:02:36.286Z,23.9
2018-06-08T17:03:56.109Z,24
2018-06-08T17:05:18.510Z,24
2018-06-08T17:06:40.909Z,23.9
2018-06-08T17:08:00.764Z,23.9
2018-06-08T17:09:30.768Z,23.9
2018-06-08T17:10:50.622Z,23.8
2018-06-08T17:12:10.472Z,23.7
2018-06-08T17:13:30.308Z,23.7
2018-06-08T17:14:50.144Z,23.7
2018-06-08T17:16:17.562Z,23.8
2018-06-08T17:17:39.904Z,23.7
2018-06-08T17:19:02.254Z,23.7
2018-06-08T17:20:24.653Z,23.7
2018-06-08T17:21:52.102Z,23.9
2018-06-08T17:23:24.622Z,23.8
2018-06-08T17:25:04.767Z,24
2018-06-08T17:26:24.674Z,24.1
2018-06-08T17:27:49.606Z,24.1
2018-06-08T17:29:11.962Z,24.2
2018-06-08T17:30:34.344Z,24.3
2018-06-08T17:32:01.750Z,24.4
2018-06-08T17:33:21.572Z,24.4
2018-06-08T17:34:41.441Z,24.4
2018-06-08T17:36:01.271Z,24.5
2018-06-08T17:37:23.623Z,24.5
2018-06-08T17:38:46.042Z,24.5
2018-06-08T17:40:05.870Z,24.5
2018-06-08T17:41:28.254Z,24.6
2018-06-08T17:42:55.673Z,24.5
2018-06-08T17:44:20.604Z,24.4
2018-06-08T17:45:48.011Z,24.4
2018-06-08T17:47:10.371Z,24.4
2018-06-08T17:48:30.216Z,24.5
2018-06-08T17:49:52.568Z,24.5
2018-06-08T17:51:12.437Z,24.5
2018-06-08T17:52:34.845Z,24.5
2018-06-08T17:53:59.784Z,24.4
2018-06-08T17:55:19.678Z,24.4
2018-06-08T17:56:42.108Z,24.3
2018-06-08T17:58:01.932Z,24.3
2018-06-08T17:59:34.480Z,24.3
2018-06-08T18:00:59.416Z,24.3
2018-06-08T18:02:29.469Z,24.3
2018-06-08T18:04:14.639Z,24.2
2018-06-08T18:05:42.071Z,24.2
2018-06-08T18:07:04.518Z,24.2
2018-06-08T18:08:39.581Z,24.2
2018-06-08T18:10:01.946Z,24.1
2018-06-08T18:11:54.854Z,24.1
2018-06-08T18:13:24.861Z,24
2018-06-08T18:14:47.233Z,23.9
2018-06-08T18:16:14.666Z,23.9
2018-06-08T18:17:47.221Z,23.9
2018-06-08T18:19:09.629Z,23.9
2018-06-08T18:20:29.521Z,23.9
2018-06-08T18:21:56.955Z,23.9
2018-06-08T18:23:21.896Z,23.8
2018-06-08T18:24:46.788Z,23.7
2018-06-08T18:26:09.179Z,23.8
2018-06-08T18:27:39.196Z,23.7
2018-06-08T18:28:59.096Z,23.6